sensor_id;sensor_type;location;lat;lon;timestamp;P1;durP1;ratioP1;P2;durP2;ratioP2
46355;SDS011;32066;49.474;11.106;2023-07-20T00:01:19;8.98;;;4.80;;
46355;SDS011;32066;49.474;11.106;2023-07-20T00:03:48;6.80;;;4.50;;
46355;SDS011;32066;49.474;11.106;2023-07-20T00:06:20;8.20;;;4.47;;
46355;SDS011;32066;49.474;11.106;2023-07-20T00:08:49;10.05;;;4.70;;
46355;SDS011;32066;49.474;11.106;2023-07-20T00:11:17;8.60;;;5.18;;
46355;SDS011;32066;49.474;11.106;2023-07-20T00:13:46;12.00;;;4.70;;
46355;SDS011;32066;49.474;11.106;2023-07-20T00:16:15;7.13;;;4.45;;
46355;SDS011;32066;49.474;11.106;2023-07-20T00:18:46;9.43;;;4.95;;
46355;SDS011;32066;49.474;11.106;2023-07-20T00:21:28;7.55;;;4.40;;
46355;SDS011;32066;49.474;11.106;2023-07-20T00:24:07;8.20;;;4.30;;
46355;SDS011;32066;49.474;11.106;2023-07-20T00:26:36;8.88;;;4.72;;
46355;SDS011;32066;49.474;11.106;2023-07-20T00:29:04;9.55;;;4.47;;
46355;SDS011;32066;49.474;11.106;2023-07-20T00:31:33;9.18;;;4.75;;
46355;SDS011;32066;49.474;11.106;2023-07-20T00:34:05;9.35;;;4.47;;
46355;SDS011;32066;49.474;11.106;2023-07-20T00:36:34;8.55;;;4.60;;
46355;SDS011;32066;49.474;11.106;2023-07-20T00:39:02;6.72;;;4.18;;
46355;SDS011;32066;49.474;11.106;2023-07-20T00:41:31;9.88;;;4.45;;
46355;SDS011;32066;49.474;11.106;2023-07-20T00:44:01;6.88;;;3.83;;
46355;SDS011;32066;49.474;11.106;2023-07-20T00:46:30;10.93;;;4.68;;
46355;SDS011;32066;49.474;11.106;2023-07-20T00:49:00;8.43;;;4.32;;
46355;SDS011;32066;49.474;11.106;2023-07-20T00:51:32;7.97;;;4.68;;
46355;SDS011;32066;49.474;11.106;2023-07-20T00:54:01;8.30;;;4.18;;
46355;SDS011;32066;49.474;11.106;2023-07-20T00:56:30;8.32;;;4.60;;
46355;SDS011;32066;49.474;11.106;2023-07-20T00:58:59;8.85;;;4.72;;
46355;SDS011;32066;49.474;11.106;2023-07-20T01:01:27;9.63;;;5.03;;
46355;SDS011;32066;49.474;11.106;2023-07-20T01:03:56;10.43;;;4.72;;
46355;SDS011;32066;49.474;11.106;2023-07-20T01:06:27;7.57;;;4.45;;
46355;SDS011;32066;49.474;11.106;2023-07-20T01:09:07;8.60;;;4.40;;
46355;SDS011;32066;49.474;11.106;2023-07-20T01:11:43;8.57;;;4.63;;
46355;SDS011;32066;49.474;11.106;2023-07-20T01:14:19;11.02;;;4.57;;
46355;SDS011;32066;49.474;11.106;2023-07-20T01:16:50;9.80;;;4.60;;
46355;SDS011;32066;49.474;11.106;2023-07-20T01:19:20;7.65;;;4.57;;
46355;SDS011;32066;49.474;11.106;2023-07-20T01:21:53;9.32;;;4.93;;
46355;SDS011;32066;49.474;11.106;2023-07-20T01:24:32;7.20;;;4.28;;
46355;SDS011;32066;49.474;11.106;2023-07-20T01:30:43;10.13;;;5.25;;
46355;SDS011;32066;49.474;11.106;2023-07-20T01:33:22;9.02;;;4.32;;
46355;SDS011;32066;49.474;11.106;2023-07-20T01:35:54;9.40;;;4.22;;
46355;SDS011;32066;49.474;11.106;2023-07-20T01:38:25;9.77;;;4.70;;
46355;SDS011;32066;49.474;11.106;2023-07-20T01:40:54;7.75;;;4.45;;
46355;SDS011;32066;49.474;11.106;2023-07-20T01:43:23;7.75;;;4.43;;
46355;SDS011;32066;49.474;11.106;2023-07-20T01:45:52;7.85;;;4.78;;
46355;SDS011;32066;49.474;11.106;2023-07-20T01:48:23;8.88;;;4.28;;
46355;SDS011;32066;49.474;11.106;2023-07-20T01:50:52;9.15;;;4.90;;
46355;SDS011;32066;49.474;11.106;2023-07-20T01:53:21;8.65;;;4.75;;
46355;SDS011;32066;49.474;11.106;2023-07-20T01:55:51;8.15;;;4.47;;
46355;SDS011;32066;49.474;11.106;2023-07-20T01:58:21;9.50;;;4.93;;
46355;SDS011;32066;49.474;11.106;2023-07-20T02:00:49;10.13;;;4.60;;
46355;SDS011;32066;49.474;11.106;2023-07-20T02:03:18;8.98;;;4.93;;
46355;SDS011;32066;49.474;11.106;2023-07-20T02:05:51;10.63;;;4.95;;
46355;SDS011;32066;49.474;11.106;2023-07-20T02:08:22;9.43;;;5.00;;
46355;SDS011;32066;49.474;11.106;2023-07-20T02:10:50;9.80;;;5.30;;
46355;SDS011;32066;49.474;11.106;2023-07-20T02:13:19;8.32;;;5.15;;
46355;SDS011;32066;49.474;11.106;2023-07-20T02:15:48;12.52;;;5.40;;
46355;SDS011;32066;49.474;11.106;2023-07-20T02:18:17;10.73;;;5.70;;
46355;SDS011;32066;49.474;11.106;2023-07-20T02:20:45;12.00;;;5.32;;
46355;SDS011;32066;49.474;11.106;2023-07-20T02:23:17;8.73;;;5.32;;
46355;SDS011;32066;49.474;11.106;2023-07-20T02:25:45;8.63;;;5.20;;
46355;SDS011;32066;49.474;11.106;2023-07-20T02:28:14;8.82;;;5.50;;
46355;SDS011;32066;49.474;11.106;2023-07-20T02:30:43;10.85;;;5.57;;
46355;SDS011;32066;49.474;11.106;2023-07-20T02:33:11;8.25;;;5.30;;
46355;SDS011;32066;49.474;11.106;2023-07-20T02:35:40;13.25;;;5.78;;
46355;SDS011;32066;49.474;11.106;2023-07-20T02:38:09;10.43;;;5.93;;
46355;SDS011;32066;49.474;11.106;2023-07-20T02:40:40;10.70;;;6.03;;
46355;SDS011;32066;49.474;11.106;2023-07-20T02:43:09;10.70;;;5.95;;
46355;SDS011;32066;49.474;11.106;2023-07-20T02:45:39;8.60;;;5.28;;
46355;SDS011;32066;49.474;11.106;2023-07-20T02:48:09;11.30;;;5.57;;
46355;SDS011;32066;49.474;11.106;2023-07-20T02:50:39;12.30;;;5.80;;
46355;SDS011;32066;49.474;11.106;2023-07-20T02:53:08;14.68;;;6.15;;
46355;SDS011;32066;49.474;11.106;2023-07-20T02:55:39;11.45;;;6.18;;
46355;SDS011;32066;49.474;11.106;2023-07-20T02:58:08;9.52;;;6.30;;
46355;SDS011;32066;49.474;11.106;2023-07-20T03:00:37;10.88;;;6.03;;
46355;SDS011;32066;49.474;11.106;2023-07-20T03:03:05;11.23;;;6.45;;
46355;SDS011;32066;49.474;11.106;2023-07-20T03:05:34;14.90;;;6.72;;
46355;SDS011;32066;49.474;11.106;2023-07-20T03:08:05;12.95;;;6.03;;
46355;SDS011;32066;49.474;11.106;2023-07-20T03:10:40;12.45;;;6.53;;
46355;SDS011;32066;49.474;11.106;2023-07-20T03:13:09;11.57;;;6.25;;
46355;SDS011;32066;49.474;11.106;2023-07-20T03:15:38;11.20;;;6.43;;
46355;SDS011;32066;49.474;11.106;2023-07-20T03:18:06;13.15;;;6.07;;
46355;SDS011;32066;49.474;11.106;2023-07-20T03:20:35;13.30;;;6.25;;
46355;SDS011;32066;49.474;11.106;2023-07-20T03:23:04;11.70;;;6.20;;
46355;SDS011;32066;49.474;11.106;2023-07-20T03:25:33;11.82;;;6.25;;
46355;SDS011;32066;49.474;11.106;2023-07-20T03:28:05;9.40;;;5.95;;
46355;SDS011;32066;49.474;11.106;2023-07-20T03:30:34;13.05;;;6.10;;
46355;SDS011;32066;49.474;11.106;2023-07-20T03:33:03;12.70;;;6.25;;
46355;SDS011;32066;49.474;11.106;2023-07-20T03:35:31;11.20;;;5.88;;
46355;SDS011;32066;49.474;11.106;2023-07-20T03:38:00;11.55;;;6.30;;
46355;SDS011;32066;49.474;11.106;2023-07-20T03:40:29;10.18;;;6.78;;
46355;SDS011;32066;49.474;11.106;2023-07-20T03:42:58;12.75;;;6.40;;
46355;SDS011;32066;49.474;11.106;2023-07-20T03:45:29;12.48;;;6.30;;
46355;SDS011;32066;49.474;11.106;2023-07-20T03:47:58;9.63;;;5.93;;
46355;SDS011;32066;49.474;11.106;2023-07-20T03:50:27;11.75;;;6.13;;
46355;SDS011;32066;49.474;11.106;2023-07-20T03:52:56;14.43;;;6.70;;
46355;SDS011;32066;49.474;11.106;2023-07-20T03:55:24;12.63;;;6.22;;
46355;SDS011;32066;49.474;11.106;2023-07-20T03:57:53;12.50;;;6.22;;
46355;SDS011;32066;49.474;11.106;2023-07-20T04:00:22;9.32;;;5.97;;
46355;SDS011;32066;49.474;11.106;2023-07-20T04:02:53;12.10;;;5.97;;
46355;SDS011;32066;49.474;11.106;2023-07-20T04:05:22;14.35;;;6.35;;
46355;SDS011;32066;49.474;11.106;2023-07-20T04:07:51;9.77;;;6.15;;
46355;SDS011;32066;49.474;11.106;2023-07-20T04:10:20;11.25;;;5.65;;
46355;SDS011;32066;49.474;11.106;2023-07-20T04:12:51;12.35;;;6.22;;
46355;SDS011;32066;49.474;11.106;2023-07-20T04:15:19;13.30;;;5.90;;
46355;SDS011;32066;49.474;11.106;2023-07-20T04:17:49;13.30;;;5.75;;
46355;SDS011;32066;49.474;11.106;2023-07-20T04:20:20;8.32;;;5.25;;
46355;SDS011;32066;49.474;11.106;2023-07-20T04:22:49;12.52;;;6.60;;
46355;SDS011;32066;49.474;11.106;2023-07-20T04:25:18;11.05;;;5.43;;
46355;SDS011;32066;49.474;11.106;2023-07-20T04:27:47;13.05;;;5.95;;
46355;SDS011;32066;49.474;11.106;2023-07-20T04:30:17;9.68;;;5.82;;
46355;SDS011;32066;49.474;11.106;2023-07-20T04:32:47;11.00;;;5.63;;
46355;SDS011;32066;49.474;11.106;2023-07-20T04:35:25;14.75;;;5.75;;
46355;SDS011;32066;49.474;11.106;2023-07-20T04:38:29;12.75;;;5.75;;
46355;SDS011;32066;49.474;11.106;2023-07-20T04:41:06;10.40;;;5.57;;
46355;SDS011;32066;49.474;11.106;2023-07-20T04:43:40;11.23;;;5.63;;
46355;SDS011;32066;49.474;11.106;2023-07-20T04:46:10;14.85;;;6.15;;
46355;SDS011;32066;49.474;11.106;2023-07-20T04:48:40;10.57;;;5.60;;
46355;SDS011;32066;49.474;11.106;2023-07-20T04:51:12;10.95;;;5.30;;
46355;SDS011;32066;49.474;11.106;2023-07-20T04:53:42;11.25;;;4.90;;
46355;SDS011;32066;49.474;11.106;2023-07-20T04:56:11;9.57;;;5.13;;
46355;SDS011;32066;49.474;11.106;2023-07-20T04:58:40;12.25;;;5.43;;
46355;SDS011;32066;49.474;11.106;2023-07-20T05:01:09;11.15;;;4.95;;
46355;SDS011;32066;49.474;11.106;2023-07-20T05:03:38;9.80;;;5.50;;
46355;SDS011;32066;49.474;11.106;2023-07-20T05:06:09;14.07;;;5.85;;
46355;SDS011;32066;49.474;11.106;2023-07-20T05:08:40;12.18;;;5.25;;
46355;SDS011;32066;49.474;11.106;2023-07-20T05:11:09;14.07;;;5.53;;
46355;SDS011;32066;49.474;11.106;2023-07-20T05:13:38;10.73;;;5.72;;
46355;SDS011;32066;49.474;11.106;2023-07-20T05:16:08;15.55;;;5.50;;
46355;SDS011;32066;49.474;11.106;2023-07-20T05:18:36;15.40;;;5.65;;
46355;SDS011;32066;49.474;11.106;2023-07-20T05:21:05;13.20;;;5.18;;
46355;SDS011;32066;49.474;11.106;2023-07-20T05:23:37;14.18;;;5.15;;
46355;SDS011;32066;49.474;11.106;2023-07-20T05:26:06;11.82;;;5.10;;
46355;SDS011;32066;49.474;11.106;2023-07-20T05:28:34;16.02;;;5.97;;
46355;SDS011;32066;49.474;11.106;2023-07-20T05:31:03;10.38;;;5.25;;
46355;SDS011;32066;49.474;11.106;2023-07-20T05:33:32;15.20;;;6.10;;
46355;SDS011;32066;49.474;11.106;2023-07-20T05:36:01;9.00;;;5.47;;
46355;SDS011;32066;49.474;11.106;2023-07-20T05:38:30;10.73;;;5.20;;
46355;SDS011;32066;49.474;11.106;2023-07-20T05:41:01;11.02;;;5.07;;
46355;SDS011;32066;49.474;11.106;2023-07-20T05:43:30;12.90;;;5.05;;
46355;SDS011;32066;49.474;11.106;2023-07-20T05:45:59;12.52;;;5.78;;
46355;SDS011;32066;49.474;11.106;2023-07-20T05:48:27;19.33;;;6.40;;
46355;SDS011;32066;49.474;11.106;2023-07-20T05:50:56;10.55;;;5.15;;
46355;SDS011;32066;49.474;11.106;2023-07-20T05:53:24;9.90;;;4.93;;
46355;SDS011;32066;49.474;11.106;2023-07-20T05:55:53;11.95;;;5.60;;
46355;SDS011;32066;49.474;11.106;2023-07-20T05:58:24;9.40;;;4.90;;
46355;SDS011;32066;49.474;11.106;2023-07-20T06:00:53;8.48;;;5.07;;
46355;SDS011;32066;49.474;11.106;2023-07-20T06:03:22;11.80;;;4.93;;
46355;SDS011;32066;49.474;11.106;2023-07-20T06:05:50;14.35;;;5.55;;
46355;SDS011;32066;49.474;11.106;2023-07-20T06:08:19;12.35;;;5.20;;
46355;SDS011;32066;49.474;11.106;2023-07-20T06:10:49;9.73;;;5.15;;
46355;SDS011;32066;49.474;11.106;2023-07-20T06:13:19;17.02;;;5.32;;
46355;SDS011;32066;49.474;11.106;2023-07-20T06:15:50;9.32;;;5.05;;
46355;SDS011;32066;49.474;11.106;2023-07-20T06:18:21;10.40;;;4.70;;
46355;SDS011;32066;49.474;11.106;2023-07-20T06:20:50;11.77;;;4.97;;
46355;SDS011;32066;49.474;11.106;2023-07-20T06:23:19;15.57;;;5.15;;
46355;SDS011;32066;49.474;11.106;2023-07-20T06:25:48;11.60;;;4.63;;
46355;SDS011;32066;49.474;11.106;2023-07-20T06:28:16;15.23;;;4.53;;
46355;SDS011;32066;49.474;11.106;2023-07-20T06:30:45;16.25;;;5.22;;
46355;SDS011;32066;49.474;11.106;2023-07-20T06:33:18;16.00;;;4.88;;
46355;SDS011;32066;49.474;11.106;2023-07-20T06:35:47;9.05;;;4.13;;
46355;SDS011;32066;49.474;11.106;2023-07-20T06:38:18;12.50;;;4.40;;
46355;SDS011;32066;49.474;11.106;2023-07-20T06:40:48;11.48;;;4.57;;
46355;SDS011;32066;49.474;11.106;2023-07-20T06:43:17;13.82;;;4.80;;
46355;SDS011;32066;49.474;11.106;2023-07-20T06:45:50;11.00;;;4.47;;
46355;SDS011;32066;49.474;11.106;2023-07-20T06:48:23;10.18;;;4.50;;
46355;SDS011;32066;49.474;11.106;2023-07-20T06:50:51;8.77;;;4.85;;
46355;SDS011;32066;49.474;11.106;2023-07-20T06:53:20;11.88;;;4.65;;
46355;SDS011;32066;49.474;11.106;2023-07-20T06:55:48;13.52;;;4.70;;
46355;SDS011;32066;49.474;11.106;2023-07-20T06:58:17;7.97;;;4.97;;
46355;SDS011;32066;49.474;11.106;2023-07-20T07:00:46;12.50;;;5.25;;
46355;SDS011;32066;49.474;11.106;2023-07-20T07:03:15;8.98;;;4.50;;
46355;SDS011;32066;49.474;11.106;2023-07-20T07:05:46;8.35;;;4.25;;
46355;SDS011;32066;49.474;11.106;2023-07-20T07:08:15;8.18;;;4.57;;
46355;SDS011;32066;49.474;11.106;2023-07-20T07:10:44;8.02;;;4.38;;
46355;SDS011;32066;49.474;11.106;2023-07-20T07:13:12;11.85;;;4.07;;
46355;SDS011;32066;49.474;11.106;2023-07-20T07:15:42;9.82;;;5.03;;
46355;SDS011;32066;49.474;11.106;2023-07-20T07:18:11;8.52;;;4.10;;
46355;SDS011;32066;49.474;11.106;2023-07-20T07:20:40;9.63;;;4.50;;
46355;SDS011;32066;49.474;11.106;2023-07-20T07:23:11;10.80;;;3.90;;
46355;SDS011;32066;49.474;11.106;2023-07-20T07:25:40;10.32;;;3.80;;
46355;SDS011;32066;49.474;11.106;2023-07-20T07:28:10;7.55;;;3.80;;
46355;SDS011;32066;49.474;11.106;2023-07-20T07:30:39;8.15;;;4.03;;
46355;SDS011;32066;49.474;11.106;2023-07-20T07:33:07;7.80;;;3.45;;
46355;SDS011;32066;49.474;11.106;2023-07-20T07:35:36;9.25;;;3.90;;
46355;SDS011;32066;49.474;11.106;2023-07-20T07:38:06;10.82;;;3.42;;
46355;SDS011;32066;49.474;11.106;2023-07-20T07:40:38;10.02;;;3.35;;
46355;SDS011;32066;49.474;11.106;2023-07-20T07:43:07;6.90;;;2.80;;
46355;SDS011;32066;49.474;11.106;2023-07-20T07:45:37;8.80;;;3.20;;
46355;SDS011;32066;49.474;11.106;2023-07-20T07:48:06;8.25;;;3.17;;
46355;SDS011;32066;49.474;11.106;2023-07-20T07:50:36;7.50;;;3.28;;
46355;SDS011;32066;49.474;11.106;2023-07-20T07:53:05;9.38;;;3.42;;
46355;SDS011;32066;49.474;11.106;2023-07-20T07:55:38;11.23;;;3.00;;
46355;SDS011;32066;49.474;11.106;2023-07-20T07:58:07;7.78;;;2.72;;
46355;SDS011;32066;49.474;11.106;2023-07-20T08:00:35;7.25;;;2.80;;
46355;SDS011;32066;49.474;11.106;2023-07-20T08:03:05;8.00;;;3.10;;
46355;SDS011;32066;49.474;11.106;2023-07-20T08:05:34;10.60;;;3.30;;
46355;SDS011;32066;49.474;11.106;2023-07-20T08:08:03;8.70;;;3.25;;
46355;SDS011;32066;49.474;11.106;2023-07-20T08:10:32;5.25;;;2.45;;
46355;SDS011;32066;49.474;11.106;2023-07-20T08:13:03;7.57;;;2.92;;
46355;SDS011;32066;49.474;11.106;2023-07-20T08:15:31;8.50;;;3.30;;
46355;SDS011;32066;49.474;11.106;2023-07-20T08:18:00;7.97;;;2.75;;
46355;SDS011;32066;49.474;11.106;2023-07-20T08:20:29;10.35;;;2.60;;
46355;SDS011;32066;49.474;11.106;2023-07-20T08:23:01;9.88;;;2.90;;
46355;SDS011;32066;49.474;11.106;2023-07-20T08:25:29;6.78;;;2.78;;
46355;SDS011;32066;49.474;11.106;2023-07-20T08:27:58;6.63;;;2.67;;
46355;SDS011;32066;49.474;11.106;2023-07-20T08:30:38;8.45;;;2.83;;
46355;SDS011;32066;49.474;11.106;2023-07-20T08:33:08;6.75;;;2.40;;
46355;SDS011;32066;49.474;11.106;2023-07-20T08:35:37;9.40;;;2.80;;
46355;SDS011;32066;49.474;11.106;2023-07-20T08:38:06;14.00;;;2.72;;
46355;SDS011;32066;49.474;11.106;2023-07-20T08:40:39;9.27;;;2.90;;
46355;SDS011;32066;49.474;11.106;2023-07-20T08:43:10;5.90;;;2.45;;
46355;SDS011;32066;49.474;11.106;2023-07-20T08:45:41;8.02;;;2.38;;
46355;SDS011;32066;49.474;11.106;2023-07-20T08:48:11;5.70;;;2.22;;
46355;SDS011;32066;49.474;11.106;2023-07-20T08:50:40;10.40;;;3.05;;
46355;SDS011;32066;49.474;11.106;2023-07-20T08:53:10;6.35;;;2.30;;
46355;SDS011;32066;49.474;11.106;2023-07-20T08:55:41;6.63;;;2.53;;
46355;SDS011;32066;49.474;11.106;2023-07-20T08:58:12;6.47;;;2.50;;
46355;SDS011;32066;49.474;11.106;2023-07-20T09:00:45;8.75;;;2.60;;
46355;SDS011;32066;49.474;11.106;2023-07-20T09:03:16;9.45;;;2.70;;
46355;SDS011;32066;49.474;11.106;2023-07-20T09:05:45;7.97;;;2.47;;
46355;SDS011;32066;49.474;11.106;2023-07-20T09:08:14;6.63;;;2.38;;
46355;SDS011;32066;49.474;11.106;2023-07-20T09:10:43;6.47;;;2.15;;
46355;SDS011;32066;49.474;11.106;2023-07-20T09:13:13;8.23;;;2.90;;
46355;SDS011;32066;49.474;11.106;2023-07-20T09:15:49;6.72;;;2.45;;
46355;SDS011;32066;49.474;11.106;2023-07-20T09:18:25;7.38;;;2.10;;
46355;SDS011;32066;49.474;11.106;2023-07-20T09:20:57;6.97;;;1.85;;
46355;SDS011;32066;49.474;11.106;2023-07-20T09:23:31;4.57;;;2.00;;
46355;SDS011;32066;49.474;11.106;2023-07-20T09:26:00;8.52;;;2.08;;
46355;SDS011;32066;49.474;11.106;2023-07-20T09:28:29;6.45;;;2.30;;
46355;SDS011;32066;49.474;11.106;2023-07-20T09:31:00;7.65;;;1.90;;
46355;SDS011;32066;49.474;11.106;2023-07-20T09:33:44;4.65;;;1.83;;
46355;SDS011;32066;49.474;11.106;2023-07-20T09:36:13;6.38;;;2.08;;
46355;SDS011;32066;49.474;11.106;2023-07-20T09:38:42;9.07;;;2.08;;
46355;SDS011;32066;49.474;11.106;2023-07-20T09:41:12;7.18;;;2.05;;
46355;SDS011;32066;49.474;11.106;2023-07-20T09:43:42;6.18;;;2.70;;
46355;SDS011;32066;49.474;11.106;2023-07-20T09:46:13;5.13;;;1.92;;
46355;SDS011;32066;49.474;11.106;2023-07-20T09:48:48;8.52;;;2.20;;
46355;SDS011;32066;49.474;11.106;2023-07-20T09:51:20;8.43;;;2.20;;
46355;SDS011;32066;49.474;11.106;2023-07-20T09:53:50;4.95;;;1.90;;
46355;SDS011;32066;49.474;11.106;2023-07-20T09:56:21;5.20;;;1.60;;
46355;SDS011;32066;49.474;11.106;2023-07-20T09:58:51;6.57;;;1.80;;
46355;SDS011;32066;49.474;11.106;2023-07-20T10:01:22;9.00;;;2.00;;
46355;SDS011;32066;49.474;11.106;2023-07-20T10:03:53;3.78;;;1.45;;
46355;SDS011;32066;49.474;11.106;2023-07-20T10:06:23;6.20;;;1.95;;
46355;SDS011;32066;49.474;11.106;2023-07-20T10:08:53;6.00;;;1.95;;
46355;SDS011;32066;49.474;11.106;2023-07-20T10:11:29;4.47;;;1.50;;
46355;SDS011;32066;49.474;11.106;2023-07-20T10:13:59;5.38;;;1.85;;
46355;SDS011;32066;49.474;11.106;2023-07-20T10:16:39;6.45;;;1.30;;
46355;SDS011;32066;49.474;11.106;2023-07-20T10:19:13;5.10;;;1.52;;
46355;SDS011;32066;49.474;11.106;2023-07-20T10:21:53;6.55;;;1.60;;
46355;SDS011;32066;49.474;11.106;2023-07-20T10:24:29;6.95;;;1.92;;
46355;SDS011;32066;49.474;11.106;2023-07-20T10:26:59;5.38;;;1.55;;
46355;SDS011;32066;49.474;11.106;2023-07-20T10:29:28;5.93;;;1.70;;
46355;SDS011;32066;49.474;11.106;2023-07-20T10:32:01;4.70;;;1.60;;
46355;SDS011;32066;49.474;11.106;2023-07-20T10:34:30;3.78;;;1.20;;
46355;SDS011;32066;49.474;11.106;2023-07-20T10:36:59;4.07;;;1.50;;
46355;SDS011;32066;49.474;11.106;2023-07-20T10:39:28;3.70;;;1.40;;
46355;SDS011;32066;49.474;11.106;2023-07-20T10:41:59;5.00;;;1.50;;
46355;SDS011;32066;49.474;11.106;2023-07-20T10:44:30;5.00;;;2.03;;
46355;SDS011;32066;49.474;11.106;2023-07-20T10:47:02;3.45;;;1.48;;
46355;SDS011;32066;49.474;11.106;2023-07-20T10:49:32;6.50;;;1.75;;
46355;SDS011;32066;49.474;11.106;2023-07-20T10:52:04;4.07;;;1.42;;
46355;SDS011;32066;49.474;11.106;2023-07-20T10:54:34;3.83;;;1.40;;
46355;SDS011;32066;49.474;11.106;2023-07-20T10:57:24;5.00;;;1.63;;
46355;SDS011;32066;49.474;11.106;2023-07-20T11:00:11;4.05;;;1.52;;
46355;SDS011;32066;49.474;11.106;2023-07-20T11:02:44;8.07;;;1.52;;
46355;SDS011;32066;49.474;11.106;2023-07-20T11:08:04;5.72;;;1.70;;
46355;SDS011;32066;49.474;11.106;2023-07-20T11:10:34;4.18;;;1.48;;
46355;SDS011;32066;49.474;11.106;2023-07-20T11:15:45;5.32;;;1.70;;
46355;SDS011;32066;49.474;11.106;2023-07-20T11:18:17;6.05;;;1.20;;
46355;SDS011;32066;49.474;11.106;2023-07-20T11:20:49;3.63;;;1.38;;
46355;SDS011;32066;49.474;11.106;2023-07-20T11:23:19;3.45;;;1.58;;
46355;SDS011;32066;49.474;11.106;2023-07-20T11:25:48;6.90;;;1.63;;
46355;SDS011;32066;49.474;11.106;2023-07-20T11:28:18;4.47;;;1.60;;
46355;SDS011;32066;49.474;11.106;2023-07-20T11:30:50;4.72;;;1.30;;
46355;SDS011;32066;49.474;11.106;2023-07-20T11:33:24;4.30;;;1.20;;
46355;SDS011;32066;49.474;11.106;2023-07-20T11:35:52;4.60;;;1.60;;
46355;SDS011;32066;49.474;11.106;2023-07-20T11:38:21;5.32;;;1.65;;
46355;SDS011;32066;49.474;11.106;2023-07-20T11:40:51;4.82;;;1.38;;
46355;SDS011;32066;49.474;11.106;2023-07-20T11:43:20;3.67;;;1.40;;
46355;SDS011;32066;49.474;11.106;2023-07-20T11:45:49;5.35;;;1.50;;
46355;SDS011;32066;49.474;11.106;2023-07-20T11:48:18;6.13;;;1.50;;
46355;SDS011;32066;49.474;11.106;2023-07-20T11:50:49;5.93;;;1.50;;
46355;SDS011;32066;49.474;11.106;2023-07-20T11:53:18;3.45;;;1.50;;
46355;SDS011;32066;49.474;11.106;2023-07-20T11:55:47;4.45;;;1.45;;
46355;SDS011;32066;49.474;11.106;2023-07-20T11:58:16;3.85;;;1.60;;
46355;SDS011;32066;49.474;11.106;2023-07-20T12:00:47;3.70;;;1.50;;
46355;SDS011;32066;49.474;11.106;2023-07-20T12:03:15;4.63;;;1.48;;
46355;SDS011;32066;49.474;11.106;2023-07-20T12:05:45;4.88;;;1.80;;
46355;SDS011;32066;49.474;11.106;2023-07-20T12:08:17;5.57;;;1.30;;
46355;SDS011;32066;49.474;11.106;2023-07-20T12:10:48;3.58;;;1.42;;
46355;SDS011;32066;49.474;11.106;2023-07-20T12:13:16;4.32;;;1.23;;
46355;SDS011;32066;49.474;11.106;2023-07-20T12:15:45;3.45;;;1.38;;
46355;SDS011;32066;49.474;11.106;2023-07-20T12:18:14;3.42;;;1.30;;
46355;SDS011;32066;49.474;11.106;2023-07-20T12:20:43;4.57;;;1.30;;
46355;SDS011;32066;49.474;11.106;2023-07-20T12:23:14;6.60;;;1.40;;
46355;SDS011;32066;49.474;11.106;2023-07-20T12:25:43;3.60;;;1.35;;
46355;SDS011;32066;49.474;11.106;2023-07-20T12:28:14;3.97;;;1.30;;
46355;SDS011;32066;49.474;11.106;2023-07-20T12:30:45;2.90;;;1.05;;
46355;SDS011;32066;49.474;11.106;2023-07-20T12:33:21;3.75;;;1.20;;
46355;SDS011;32066;49.474;11.106;2023-07-20T12:35:50;3.88;;;1.45;;
46355;SDS011;32066;49.474;11.106;2023-07-20T12:38:23;4.03;;;1.52;;
46355;SDS011;32066;49.474;11.106;2023-07-20T12:40:52;3.88;;;1.20;;
46355;SDS011;32066;49.474;11.106;2023-07-20T12:43:21;3.57;;;1.50;;
46355;SDS011;32066;49.474;11.106;2023-07-20T12:45:50;6.00;;;1.40;;
46355;SDS011;32066;49.474;11.106;2023-07-20T12:48:20;4.70;;;1.50;;
46355;SDS011;32066;49.474;11.106;2023-07-20T12:50:48;3.83;;;1.40;;
46355;SDS011;32066;49.474;11.106;2023-07-20T12:53:17;7.85;;;1.80;;
46355;SDS011;32066;49.474;11.106;2023-07-20T12:55:49;3.75;;;1.35;;
46355;SDS011;32066;49.474;11.106;2023-07-20T12:58:17;4.85;;;1.42;;
46355;SDS011;32066;49.474;11.106;2023-07-20T13:00:46;5.00;;;1.42;;
46355;SDS011;32066;49.474;11.106;2023-07-20T13:03:15;4.88;;;1.60;;
46355;SDS011;32066;49.474;11.106;2023-07-20T13:05:44;4.22;;;1.50;;
46355;SDS011;32066;49.474;11.106;2023-07-20T13:08:13;4.85;;;1.65;;
46355;SDS011;32066;49.474;11.106;2023-07-20T13:10:43;6.13;;;1.85;;
46355;SDS011;32066;49.474;11.106;2023-07-20T13:13:14;3.78;;;1.60;;
46355;SDS011;32066;49.474;11.106;2023-07-20T13:15:43;3.92;;;1.50;;
46355;SDS011;32066;49.474;11.106;2023-07-20T13:18:13;4.63;;;1.65;;
46355;SDS011;32066;49.474;11.106;2023-07-20T13:20:41;5.10;;;2.15;;
46355;SDS011;32066;49.474;11.106;2023-07-20T13:23:10;3.40;;;1.50;;
46355;SDS011;32066;49.474;11.106;2023-07-20T13:25:39;5.30;;;1.92;;
46355;SDS011;32066;49.474;11.106;2023-07-20T13:28:07;4.95;;;1.48;;
46355;SDS011;32066;49.474;11.106;2023-07-20T13:30:39;3.72;;;1.60;;
46355;SDS011;32066;49.474;11.106;2023-07-20T13:33:08;4.82;;;1.70;;
46355;SDS011;32066;49.474;11.106;2023-07-20T13:35:36;4.20;;;1.45;;
46355;SDS011;32066;49.474;11.106;2023-07-20T13:38:05;6.15;;;1.80;;
46355;SDS011;32066;49.474;11.106;2023-07-20T13:40:34;3.65;;;1.40;;
46355;SDS011;32066;49.474;11.106;2023-07-20T13:43:03;3.60;;;1.67;;
46355;SDS011;32066;49.474;11.106;2023-07-20T13:45:32;3.53;;;1.50;;
46355;SDS011;32066;49.474;11.106;2023-07-20T13:48:03;4.40;;;1.40;;
46355;SDS011;32066;49.474;11.106;2023-07-20T13:50:32;5.30;;;1.70;;
46355;SDS011;32066;49.474;11.106;2023-07-20T13:53:00;5.68;;;1.60;;
46355;SDS011;32066;49.474;11.106;2023-07-20T13:55:29;4.32;;;1.70;;
46355;SDS011;32066;49.474;11.106;2023-07-20T13:58:01;3.65;;;1.45;;
46355;SDS011;32066;49.474;11.106;2023-07-20T14:00:30;5.80;;;1.90;;
46355;SDS011;32066;49.474;11.106;2023-07-20T14:03:00;3.88;;;1.50;;
46355;SDS011;32066;49.474;11.106;2023-07-20T14:05:31;3.67;;;1.60;;
46355;SDS011;32066;49.474;11.106;2023-07-20T14:07:59;11.90;;;1.77;;
46355;SDS011;32066;49.474;11.106;2023-07-20T14:10:28;5.35;;;1.67;;
46355;SDS011;32066;49.474;11.106;2023-07-20T14:12:57;6.03;;;1.60;;
46355;SDS011;32066;49.474;11.106;2023-07-20T14:15:25;4.57;;;1.65;;
46355;SDS011;32066;49.474;11.106;2023-07-20T14:17:54;4.00;;;1.50;;
46355;SDS011;32066;49.474;11.106;2023-07-20T14:20:25;3.88;;;1.60;;
46355;SDS011;32066;49.474;11.106;2023-07-20T14:22:54;4.35;;;1.42;;
46355;SDS011;32066;49.474;11.106;2023-07-20T14:25:23;5.80;;;1.52;;
46355;SDS011;32066;49.474;11.106;2023-07-20T14:27:51;4.22;;;1.90;;
46355;SDS011;32066;49.474;11.106;2023-07-20T14:30:20;4.00;;;1.67;;
46355;SDS011;32066;49.474;11.106;2023-07-20T14:32:48;4.03;;;1.70;;
46355;SDS011;32066;49.474;11.106;2023-07-20T14:35:17;3.45;;;1.55;;
46355;SDS011;32066;49.474;11.106;2023-07-20T14:37:49;5.82;;;1.70;;
46355;SDS011;32066;49.474;11.106;2023-07-20T14:40:18;4.68;;;1.40;;
46355;SDS011;32066;49.474;11.106;2023-07-20T14:42:47;5.22;;;1.65;;
46355;SDS011;32066;49.474;11.106;2023-07-20T14:45:17;3.70;;;1.70;;
46355;SDS011;32066;49.474;11.106;2023-07-20T14:47:46;4.07;;;1.63;;
46355;SDS011;32066;49.474;11.106;2023-07-20T14:50:19;4.30;;;1.67;;
46355;SDS011;32066;49.474;11.106;2023-07-20T14:52:50;4.78;;;1.35;;
46355;SDS011;32066;49.474;11.106;2023-07-20T14:55:20;3.50;;;1.40;;
46355;SDS011;32066;49.474;11.106;2023-07-20T14:57:50;3.75;;;1.55;;